Decoded Metar for KPOB (FAYETTEVILLE in NC, USA) (IATA:POB) | Meteo·Mobile Aviation Weather
aviador You're here:

KPOB Decoded Metar

FAYETTEVILLE in NC, USA
Report Time2019-01-16 17:18:00
UTC Time2019-01-16 18:00:29
Flight Rules vfr VFR
Wind270° at 06 kt
W.Decomp.*RWY 23: 4.1 kt HW 4.4 kt RCW
W.Rank270° ranks 11
Current wind is below 270° avg. (6.2)
Visibility9999 m
Phenomena:N/A
Clouds:N/A
Expected CloudBase > 4,000 ft AGL from Temp-Dew spread
CeilingNone
Temp12°C (ISA -3)
Dew Point02°C (51% RH)
AAT8.2°C
QNH1022 hPa
Density Alt-295 ft
Elevation217 ft
Report Wrong Elevation
Raw Report
SPECI KPOB 161718Z AUTO 27006KT 10SM CLR 12/02 A3018 RMK AO2 SLP224
$=

Extra information for KPOB:More info

Metar Taf Metar & Taf Last 4 Metars F.Rules Stats Wind Profile Meteogram Temp Stats Airport Information Weather charts Add Link Nearby VenuesMetar ALERT Operation Metar Decoded Social comments

AIRNAV info for KPOB